^ Back to Top

Niederschlagsradar DWD

© Deutscher Wetterdienst, Offenbach (DWD)

Aviation WX

[source: ADDS]
METAR
EDDN 041750Z VRB01KT CAVOK M02/M05 Q1028 R28/19//95 NOSIG =
TAF
TAF EDDN 041700Z 0418/0518 09004KT CAVOK TEMPO 0507/0512 BKN008 =
SR / SS: 06:53 / 15:18 UTC (ETHR 2016-12-04)

Statistiken

Besucher
42
Beiträge
36
Weblinks
10
Anzahl Beitragshäufigkeit
60294